sensor_id;sensor_type;location;lat;lon;timestamp;P1;durP1;ratioP1;P2;durP2;ratioP2
23179;SDS011;11758;45.756;11.432;2022-11-20T00:01:30;2.60;;;2.40;;
23179;SDS011;11758;45.756;11.432;2022-11-20T00:03:57;2.47;;;2.28;;
23179;SDS011;11758;45.756;11.432;2022-11-20T00:06:24;2.40;;;2.20;;
23179;SDS011;11758;45.756;11.432;2022-11-20T00:08:52;2.00;;;1.90;;
23179;SDS011;11758;45.756;11.432;2022-11-20T00:11:20;1.98;;;1.88;;
23179;SDS011;11758;45.756;11.432;2022-11-20T00:13:47;2.00;;;1.90;;
23179;SDS011;11758;45.756;11.432;2022-11-20T00:16:14;1.92;;;1.83;;
23179;SDS011;11758;45.756;11.432;2022-11-20T00:18:41;1.90;;;1.80;;
23179;SDS011;11758;45.756;11.432;2022-11-20T00:21:10;2.05;;;1.83;;
23179;SDS011;11758;45.756;11.432;2022-11-20T00:23:36;1.90;;;1.80;;
23179;SDS011;11758;45.756;11.432;2022-11-20T00:26:03;2.25;;;2.15;;
23179;SDS011;11758;45.756;11.432;2022-11-20T00:28:29;1.80;;;1.70;;
23179;SDS011;11758;45.756;11.432;2022-11-20T00:31:02;1.85;;;1.75;;
23179;SDS011;11758;45.756;11.432;2022-11-20T00:33:28;2.08;;;1.98;;
23179;SDS011;11758;45.756;11.432;2022-11-20T00:35:58;1.73;;;1.70;;
23179;SDS011;11758;45.756;11.432;2022-11-20T00:38:25;2.20;;;2.10;;
23179;SDS011;11758;45.756;11.432;2022-11-20T00:40:57;1.90;;;1.80;;
23179;SDS011;11758;45.756;11.432;2022-11-20T00:43:24;1.88;;;1.70;;
23179;SDS011;11758;45.756;11.432;2022-11-20T00:45:50;2.15;;;2.05;;
23179;SDS011;11758;45.756;11.432;2022-11-20T00:48:17;1.90;;;1.80;;
23179;SDS011;11758;45.756;11.432;2022-11-20T00:50:43;2.13;;;2.03;;
23179;SDS011;11758;45.756;11.432;2022-11-20T00:53:09;2.30;;;2.00;;
23179;SDS011;11758;45.756;11.432;2022-11-20T00:55:35;2.53;;;1.80;;
23179;SDS011;11758;45.756;11.432;2022-11-20T00:58:01;3.28;;;2.25;;
23179;SDS011;11758;45.756;11.432;2022-11-20T01:00:27;2.40;;;2.20;;
23179;SDS011;11758;45.756;11.432;2022-11-20T01:02:55;2.20;;;2.10;;
23179;SDS011;11758;45.756;11.432;2022-11-20T01:05:21;2.10;;;2.00;;
23179;SDS011;11758;45.756;11.432;2022-11-20T01:07:47;1.90;;;1.80;;
23179;SDS011;11758;45.756;11.432;2022-11-20T01:10:13;2.80;;;2.20;;
23179;SDS011;11758;45.756;11.432;2022-11-20T01:12:39;3.42;;;2.30;;
23179;SDS011;11758;45.756;11.432;2022-11-20T01:15:06;2.40;;;2.20;;
23179;SDS011;11758;45.756;11.432;2022-11-20T01:17:33;2.80;;;2.15;;
23179;SDS011;11758;45.756;11.432;2022-11-20T01:19:59;3.38;;;2.33;;
23179;SDS011;11758;45.756;11.432;2022-11-20T01:22:25;2.70;;;2.50;;
23179;SDS011;11758;45.756;11.432;2022-11-20T01:24:51;2.67;;;2.25;;
23179;SDS011;11758;45.756;11.432;2022-11-20T01:27:17;3.08;;;2.17;;
23179;SDS011;11758;45.756;11.432;2022-11-20T01:29:43;1.70;;;1.70;;
23179;SDS011;11758;45.756;11.432;2022-11-20T01:32:09;2.15;;;2.05;;
23179;SDS011;11758;45.756;11.432;2022-11-20T01:34:35;2.00;;;1.90;;
23179;SDS011;11758;45.756;11.432;2022-11-20T01:37:01;1.75;;;1.65;;
23179;SDS011;11758;45.756;11.432;2022-11-20T01:39:27;1.98;;;1.88;;
23179;SDS011;11758;45.756;11.432;2022-11-20T01:41:54;2.05;;;1.85;;
23179;SDS011;11758;45.756;11.432;2022-11-20T01:44:56;1.88;;;1.77;;
23179;SDS011;11758;45.756;11.432;2022-11-20T01:47:36;1.60;;;1.50;;
23179;SDS011;11758;45.756;11.432;2022-11-20T01:50:05;1.80;;;1.70;;
23179;SDS011;11758;45.756;11.432;2022-11-20T01:52:39;1.70;;;1.60;;
23179;SDS011;11758;45.756;11.432;2022-11-20T01:55:07;2.20;;;2.10;;
23179;SDS011;11758;45.756;11.432;2022-11-20T01:57:35;1.95;;;1.40;;
23179;SDS011;11758;45.756;11.432;2022-11-20T02:00:09;1.70;;;1.60;;
23179;SDS011;11758;45.756;11.432;2022-11-20T02:02:36;1.83;;;1.73;;
23179;SDS011;11758;45.756;11.432;2022-11-20T02:05:05;1.85;;;1.75;;
23179;SDS011;11758;45.756;11.432;2022-11-20T02:07:35;1.70;;;1.58;;
23179;SDS011;11758;45.756;11.432;2022-11-20T02:10:01;1.73;;;1.67;;
23179;SDS011;11758;45.756;11.432;2022-11-20T02:12:27;1.23;;;1.20;;
23179;SDS011;11758;45.756;11.432;2022-11-20T02:15:12;1.65;;;1.35;;
23179;SDS011;11758;45.756;11.432;2022-11-20T02:17:38;4.03;;;2.95;;
23179;SDS011;11758;45.756;11.432;2022-11-20T02:20:04;2.50;;;2.10;;
23179;SDS011;11758;45.756;11.432;2022-11-20T02:22:34;1.85;;;1.75;;
23179;SDS011;11758;45.756;11.432;2022-11-20T02:25:02;1.90;;;1.80;;
23179;SDS011;11758;45.756;11.432;2022-11-20T02:27:28;1.67;;;1.67;;
23179;SDS011;11758;45.756;11.432;2022-11-20T02:29:59;12.32;;;2.30;;
23179;SDS011;11758;45.756;11.432;2022-11-20T02:32:31;1.83;;;1.73;;
23179;SDS011;11758;45.756;11.432;2022-11-20T02:34:57;1.98;;;1.88;;
23179;SDS011;11758;45.756;11.432;2022-11-20T02:37:26;2.33;;;2.00;;
23179;SDS011;11758;45.756;11.432;2022-11-20T02:39:56;3.10;;;2.00;;
23179;SDS011;11758;45.756;11.432;2022-11-20T02:42:22;2.28;;;1.80;;
23179;SDS011;11758;45.756;11.432;2022-11-20T02:44:48;2.28;;;1.63;;
23179;SDS011;11758;45.756;11.432;2022-11-20T02:47:14;1.67;;;1.63;;
23179;SDS011;11758;45.756;11.432;2022-11-20T02:49:40;2.03;;;1.85;;
23179;SDS011;11758;45.756;11.432;2022-11-20T02:52:06;1.90;;;1.80;;
23179;SDS011;11758;45.756;11.432;2022-11-20T02:54:32;2.67;;;2.10;;
23179;SDS011;11758;45.756;11.432;2022-11-20T02:56:58;1.40;;;1.40;;
23179;SDS011;11758;45.756;11.432;2022-11-20T02:59:25;1.30;;;1.30;;
23179;SDS011;11758;45.756;11.432;2022-11-20T03:01:51;4.43;;;1.50;;
23179;SDS011;11758;45.756;11.432;2022-11-20T03:04:17;1.25;;;1.25;;
23179;SDS011;11758;45.756;11.432;2022-11-20T03:06:43;1.60;;;1.58;;
23179;SDS011;11758;45.756;11.432;2022-11-20T03:09:09;3.80;;;1.38;;
23179;SDS011;11758;45.756;11.432;2022-11-20T03:11:35;1.58;;;1.27;;
23179;SDS011;11758;45.756;11.432;2022-11-20T03:14:02;1.20;;;1.20;;
23179;SDS011;11758;45.756;11.432;2022-11-20T03:16:30;1.33;;;1.33;;
23179;SDS011;11758;45.756;11.432;2022-11-20T03:18:56;1.45;;;1.30;;
23179;SDS011;11758;45.756;11.432;2022-11-20T03:21:22;1.40;;;1.40;;
23179;SDS011;11758;45.756;11.432;2022-11-20T03:23:48;1.20;;;1.20;;
23179;SDS011;11758;45.756;11.432;2022-11-20T03:26:16;0.85;;;0.85;;
23179;SDS011;11758;45.756;11.432;2022-11-20T03:28:45;1.00;;;1.00;;
23179;SDS011;11758;45.756;11.432;2022-11-20T03:31:13;0.82;;;0.82;;
23179;SDS011;11758;45.756;11.432;2022-11-20T03:33:40;2.92;;;0.90;;
23179;SDS011;11758;45.756;11.432;2022-11-20T03:36:07;0.98;;;0.85;;
23179;SDS011;11758;45.756;11.432;2022-11-20T03:38:34;1.10;;;1.10;;
23179;SDS011;11758;45.756;11.432;2022-11-20T03:41:19;1.20;;;0.93;;
23179;SDS011;11758;45.756;11.432;2022-11-20T03:43:49;2.38;;;1.25;;
23179;SDS011;11758;45.756;11.432;2022-11-20T03:46:15;1.10;;;1.10;;
23179;SDS011;11758;45.756;11.432;2022-11-20T03:48:41;0.90;;;0.90;;
23179;SDS011;11758;45.756;11.432;2022-11-20T03:51:20;1.05;;;1.00;;
23179;SDS011;11758;45.756;11.432;2022-11-20T03:53:47;0.90;;;0.90;;
23179;SDS011;11758;45.756;11.432;2022-11-20T03:56:15;2.40;;;1.30;;
23179;SDS011;11758;45.756;11.432;2022-11-20T03:58:42;0.80;;;0.80;;
23179;SDS011;11758;45.756;11.432;2022-11-20T04:01:10;0.98;;;0.98;;
23179;SDS011;11758;45.756;11.432;2022-11-20T04:03:37;1.25;;;1.25;;
23179;SDS011;11758;45.756;11.432;2022-11-20T04:06:10;0.90;;;0.90;;
23179;SDS011;11758;45.756;11.432;2022-11-20T04:08:36;1.52;;;1.42;;
23179;SDS011;11758;45.756;11.432;2022-11-20T04:13:35;0.90;;;0.90;;
23179;SDS011;11758;45.756;11.432;2022-11-20T04:16:01;0.95;;;0.95;;
23179;SDS011;11758;45.756;11.432;2022-11-20T04:18:27;1.02;;;1.02;;
23179;SDS011;11758;45.756;11.432;2022-11-20T04:20:53;1.08;;;1.08;;
23179;SDS011;11758;45.756;11.432;2022-11-20T04:23:19;0.95;;;0.95;;
23179;SDS011;11758;45.756;11.432;2022-11-20T04:25:45;1.00;;;1.00;;
23179;SDS011;11758;45.756;11.432;2022-11-20T04:28:11;1.05;;;1.05;;
23179;SDS011;11758;45.756;11.432;2022-11-20T04:30:37;2.20;;;0.90;;
23179;SDS011;11758;45.756;11.432;2022-11-20T04:33:03;1.00;;;1.00;;
23179;SDS011;11758;45.756;11.432;2022-11-20T04:35:30;0.80;;;0.80;;
23179;SDS011;11758;45.756;11.432;2022-11-20T04:37:56;3.03;;;1.17;;
23179;SDS011;11758;45.756;11.432;2022-11-20T04:40:22;1.17;;;1.17;;
23179;SDS011;11758;45.756;11.432;2022-11-20T04:42:48;1.20;;;1.20;;
23179;SDS011;11758;45.756;11.432;2022-11-20T04:45:14;0.90;;;0.90;;
23179;SDS011;11758;45.756;11.432;2022-11-20T04:47:40;1.95;;;0.98;;
23179;SDS011;11758;45.756;11.432;2022-11-20T04:50:06;1.08;;;1.08;;
23179;SDS011;11758;45.756;11.432;2022-11-20T04:52:32;1.05;;;1.05;;
23179;SDS011;11758;45.756;11.432;2022-11-20T04:54:58;1.50;;;1.15;;
23179;SDS011;11758;45.756;11.432;2022-11-20T04:57:24;1.30;;;1.30;;
23179;SDS011;11758;45.756;11.432;2022-11-20T04:59:50;1.35;;;1.35;;
23179;SDS011;11758;45.756;11.432;2022-11-20T05:02:17;1.40;;;1.30;;
23179;SDS011;11758;45.756;11.432;2022-11-20T05:04:43;1.10;;;1.10;;
23179;SDS011;11758;45.756;11.432;2022-11-20T05:07:09;1.13;;;1.13;;
23179;SDS011;11758;45.756;11.432;2022-11-20T05:09:35;3.10;;;1.20;;
23179;SDS011;11758;45.756;11.432;2022-11-20T05:12:01;1.17;;;1.17;;
23179;SDS011;11758;45.756;11.432;2022-11-20T05:14:27;1.25;;;1.25;;
23179;SDS011;11758;45.756;11.432;2022-11-20T05:16:53;1.00;;;1.00;;
23179;SDS011;11758;45.756;11.432;2022-11-20T05:19:19;0.90;;;0.90;;
23179;SDS011;11758;45.756;11.432;2022-11-20T05:21:45;1.00;;;1.00;;
23179;SDS011;11758;45.756;11.432;2022-11-20T05:24:11;1.20;;;1.20;;
23179;SDS011;11758;45.756;11.432;2022-11-20T05:26:38;1.30;;;1.30;;
23179;SDS011;11758;45.756;11.432;2022-11-20T05:29:04;1.35;;;1.25;;
23179;SDS011;11758;45.756;11.432;2022-11-20T05:31:30;1.13;;;1.13;;
23179;SDS011;11758;45.756;11.432;2022-11-20T05:33:56;1.20;;;1.20;;
23179;SDS011;11758;45.756;11.432;2022-11-20T05:36:22;1.25;;;1.20;;
23179;SDS011;11758;45.756;11.432;2022-11-20T05:38:48;1.10;;;1.10;;
23179;SDS011;11758;45.756;11.432;2022-11-20T05:41:15;1.00;;;1.00;;
23179;SDS011;11758;45.756;11.432;2022-11-20T05:43:43;0.90;;;0.90;;
23179;SDS011;11758;45.756;11.432;2022-11-20T05:46:10;1.15;;;1.15;;
23179;SDS011;11758;45.756;11.432;2022-11-20T05:48:37;1.20;;;1.20;;
23179;SDS011;11758;45.756;11.432;2022-11-20T05:51:05;1.10;;;1.10;;
23179;SDS011;11758;45.756;11.432;2022-11-20T05:53:31;1.10;;;1.10;;
23179;SDS011;11758;45.756;11.432;2022-11-20T05:56:02;0.80;;;0.80;;
23179;SDS011;11758;45.756;11.432;2022-11-20T05:58:28;1.17;;;1.17;;
23179;SDS011;11758;45.756;11.432;2022-11-20T06:00:54;1.08;;;1.08;;
23179;SDS011;11758;45.756;11.432;2022-11-20T06:03:20;1.85;;;1.30;;
23179;SDS011;11758;45.756;11.432;2022-11-20T06:05:47;1.00;;;1.00;;
23179;SDS011;11758;45.756;11.432;2022-11-20T06:08:13;1.10;;;1.10;;
23179;SDS011;11758;45.756;11.432;2022-11-20T06:10:39;1.40;;;1.15;;
23179;SDS011;11758;45.756;11.432;2022-11-20T06:13:05;1.10;;;1.08;;
23179;SDS011;11758;45.756;11.432;2022-11-20T06:15:31;1.20;;;1.20;;
23179;SDS011;11758;45.756;11.432;2022-11-20T06:17:58;1.10;;;1.10;;
23179;SDS011;11758;45.756;11.432;2022-11-20T06:20:25;1.00;;;1.00;;
23179;SDS011;11758;45.756;11.432;2022-11-20T06:22:52;1.73;;;1.05;;
23179;SDS011;11758;45.756;11.432;2022-11-20T06:25:24;1.20;;;1.20;;
23179;SDS011;11758;45.756;11.432;2022-11-20T06:27:51;1.42;;;1.42;;
23179;SDS011;11758;45.756;11.432;2022-11-20T06:30:19;1.60;;;1.50;;
23179;SDS011;11758;45.756;11.432;2022-11-20T06:32:46;1.20;;;1.20;;
23179;SDS011;11758;45.756;11.432;2022-11-20T06:35:17;1.02;;;1.02;;
23179;SDS011;11758;45.756;11.432;2022-11-20T06:37:45;1.10;;;1.05;;
23179;SDS011;11758;45.756;11.432;2022-11-20T06:40:11;1.60;;;1.50;;
23179;SDS011;11758;45.756;11.432;2022-11-20T06:42:38;1.38;;;1.27;;
23179;SDS011;11758;45.756;11.432;2022-11-20T06:45:04;3.53;;;2.50;;
23179;SDS011;11758;45.756;11.432;2022-11-20T06:47:30;1.95;;;1.85;;
23179;SDS011;11758;45.756;11.432;2022-11-20T06:49:56;1.70;;;1.60;;
23179;SDS011;11758;45.756;11.432;2022-11-20T06:52:22;1.95;;;1.85;;
23179;SDS011;11758;45.756;11.432;2022-11-20T06:54:48;1.40;;;1.40;;
23179;SDS011;11758;45.756;11.432;2022-11-20T06:57:14;1.73;;;1.63;;
23179;SDS011;11758;45.756;11.432;2022-11-20T06:59:41;3.33;;;1.70;;
23179;SDS011;11758;45.756;11.432;2022-11-20T07:02:10;2.28;;;2.17;;
23179;SDS011;11758;45.756;11.432;2022-11-20T07:04:37;1.90;;;1.85;;
23179;SDS011;11758;45.756;11.432;2022-11-20T07:07:03;1.60;;;1.50;;
23179;SDS011;11758;45.756;11.432;2022-11-20T07:09:29;1.80;;;1.70;;
23179;SDS011;11758;45.756;11.432;2022-11-20T07:11:55;5.32;;;4.55;;
23179;SDS011;11758;45.756;11.432;2022-11-20T07:14:21;2.97;;;2.75;;
23179;SDS011;11758;45.756;11.432;2022-11-20T07:16:47;3.30;;;2.85;;
23179;SDS011;11758;45.756;11.432;2022-11-20T07:19:13;12.52;;;7.60;;
23179;SDS011;11758;45.756;11.432;2022-11-20T07:21:40;5.38;;;3.70;;
23179;SDS011;11758;45.756;11.432;2022-11-20T07:24:06;4.55;;;4.25;;
23179;SDS011;11758;45.756;11.432;2022-11-20T07:26:32;2.47;;;2.38;;
23179;SDS011;11758;45.756;11.432;2022-11-20T07:28:58;3.42;;;3.15;;
23179;SDS011;11758;45.756;11.432;2022-11-20T07:31:24;9.98;;;4.57;;
23179;SDS011;11758;45.756;11.432;2022-11-20T07:33:50;3.35;;;3.15;;
23179;SDS011;11758;45.756;11.432;2022-11-20T07:36:16;2.20;;;2.10;;
23179;SDS011;11758;45.756;11.432;2022-11-20T07:38:42;1.90;;;1.80;;
23179;SDS011;11758;45.756;11.432;2022-11-20T07:41:08;1.30;;;1.30;;
23179;SDS011;11758;45.756;11.432;2022-11-20T07:43:35;1.33;;;1.33;;
23179;SDS011;11758;45.756;11.432;2022-11-20T07:46:01;1.63;;;1.52;;
23179;SDS011;11758;45.756;11.432;2022-11-20T07:48:29;1.60;;;1.50;;
23179;SDS011;11758;45.756;11.432;2022-11-20T07:50:56;1.70;;;1.60;;
23179;SDS011;11758;45.756;11.432;2022-11-20T07:53:23;1.30;;;1.30;;
23179;SDS011;11758;45.756;11.432;2022-11-20T07:55:50;1.65;;;1.55;;
23179;SDS011;11758;45.756;11.432;2022-11-20T07:58:19;1.17;;;1.17;;
23179;SDS011;11758;45.756;11.432;2022-11-20T08:00:46;1.20;;;1.10;;
23179;SDS011;11758;45.756;11.432;2022-11-20T08:03:12;1.50;;;1.40;;
23179;SDS011;11758;45.756;11.432;2022-11-20T08:05:38;1.75;;;1.65;;
23179;SDS011;11758;45.756;11.432;2022-11-20T08:08:04;2.80;;;2.60;;
23179;SDS011;11758;45.756;11.432;2022-11-20T08:10:32;1.40;;;1.40;;
23179;SDS011;11758;45.756;11.432;2022-11-20T08:12:58;1.85;;;1.75;;
23179;SDS011;11758;45.756;11.432;2022-11-20T08:15:47;1.60;;;1.60;;
23179;SDS011;11758;45.756;11.432;2022-11-20T08:18:13;4.80;;;1.27;;
23179;SDS011;11758;45.756;11.432;2022-11-20T08:20:39;2.40;;;1.33;;
23179;SDS011;11758;45.756;11.432;2022-11-20T08:23:05;1.30;;;1.23;;
23179;SDS011;11758;45.756;11.432;2022-11-20T08:25:32;1.52;;;1.40;;
23179;SDS011;11758;45.756;11.432;2022-11-20T08:27:59;1.52;;;1.42;;
23179;SDS011;11758;45.756;11.432;2022-11-20T08:30:27;5.97;;;3.58;;
23179;SDS011;11758;45.756;11.432;2022-11-20T08:32:55;1.20;;;1.20;;
23179;SDS011;11758;45.756;11.432;2022-11-20T08:35:26;1.60;;;1.50;;
23179;SDS011;11758;45.756;11.432;2022-11-20T08:37:52;2.78;;;1.67;;
23179;SDS011;11758;45.756;11.432;2022-11-20T08:40:19;2.40;;;2.20;;
23179;SDS011;11758;45.756;11.432;2022-11-20T08:42:45;3.25;;;1.23;;
23179;SDS011;11758;45.756;11.432;2022-11-20T08:45:12;1.27;;;1.27;;
23179;SDS011;11758;45.756;11.432;2022-11-20T08:47:38;0.95;;;0.95;;
23179;SDS011;11758;45.756;11.432;2022-11-20T08:50:04;2.63;;;1.58;;
23179;SDS011;11758;45.756;11.432;2022-11-20T08:52:30;4.30;;;2.15;;
23179;SDS011;11758;45.756;11.432;2022-11-20T08:54:57;2.10;;;2.00;;
23179;SDS011;11758;45.756;11.432;2022-11-20T08:57:23;1.80;;;1.17;;
23179;SDS011;11758;45.756;11.432;2022-11-20T08:59:49;2.45;;;1.55;;
23179;SDS011;11758;45.756;11.432;2022-11-20T09:02:15;1.30;;;1.30;;
23179;SDS011;11758;45.756;11.432;2022-11-20T09:04:41;1.52;;;1.42;;
23179;SDS011;11758;45.756;11.432;2022-11-20T09:07:07;1.30;;;1.30;;
23179;SDS011;11758;45.756;11.432;2022-11-20T09:09:33;1.60;;;1.50;;
23179;SDS011;11758;45.756;11.432;2022-11-20T09:11:59;1.10;;;1.10;;
23179;SDS011;11758;45.756;11.432;2022-11-20T09:14:25;1.20;;;1.20;;
23179;SDS011;11758;45.756;11.432;2022-11-20T09:16:57;1.70;;;1.60;;
23179;SDS011;11758;45.756;11.432;2022-11-20T09:19:23;2.03;;;1.92;;
23179;SDS011;11758;45.756;11.432;2022-11-20T09:21:50;1.70;;;1.60;;
23179;SDS011;11758;45.756;11.432;2022-11-20T09:24:17;3.33;;;1.73;;
23179;SDS011;11758;45.756;11.432;2022-11-20T09:26:43;1.77;;;1.67;;
23179;SDS011;11758;45.756;11.432;2022-11-20T09:29:09;1.80;;;1.70;;
23179;SDS011;11758;45.756;11.432;2022-11-20T09:31:35;2.00;;;1.90;;
23179;SDS011;11758;45.756;11.432;2022-11-20T09:34:02;2.00;;;1.88;;
23179;SDS011;11758;45.756;11.432;2022-11-20T09:36:28;1.85;;;1.67;;
23179;SDS011;11758;45.756;11.432;2022-11-20T09:38:54;1.30;;;1.30;;
23179;SDS011;11758;45.756;11.432;2022-11-20T09:41:31;6.93;;;4.90;;
23179;SDS011;11758;45.756;11.432;2022-11-20T09:44:05;1.98;;;1.60;;
23179;SDS011;11758;45.756;11.432;2022-11-20T09:54:26;2.25;;;2.00;;
23179;SDS011;11758;45.756;11.432;2022-11-20T09:56:53;3.55;;;1.50;;
23179;SDS011;11758;45.756;11.432;2022-11-20T09:59:41;2.60;;;1.35;;
23179;SDS011;11758;45.756;11.432;2022-11-20T10:02:23;1.23;;;1.23;;
23179;SDS011;11758;45.756;11.432;2022-11-20T10:04:53;1.40;;;1.17;;
23179;SDS011;11758;45.756;11.432;2022-11-20T10:07:23;4.30;;;1.45;;
23179;SDS011;11758;45.756;11.432;2022-11-20T10:09:53;1.50;;;1.40;;
23179;SDS011;11758;45.756;11.432;2022-11-20T10:24:56;1.80;;;1.27;;
23179;SDS011;11758;45.756;11.432;2022-11-20T10:27:38;2.05;;;1.55;;
23179;SDS011;11758;45.756;11.432;2022-11-20T10:30:10;2.63;;;1.67;;
23179;SDS011;11758;45.756;11.432;2022-11-20T10:32:38;2.50;;;1.52;;
23179;SDS011;11758;45.756;11.432;2022-11-20T10:35:14;26.60;;;18.20;;
23179;SDS011;11758;45.756;11.432;2022-11-20T10:37:42;3.60;;;3.30;;
23179;SDS011;11758;45.756;11.432;2022-11-20T10:42:37;7.50;;;4.47;;
23179;SDS011;11758;45.756;11.432;2022-11-20T10:47:40;3.17;;;2.63;;
23179;SDS011;11758;45.756;11.432;2022-11-20T10:50:08;4.15;;;1.98;;
23179;SDS011;11758;45.756;11.432;2022-11-20T11:00:09;4.00;;;1.95;;
23179;SDS011;11758;45.756;11.432;2022-11-20T11:02:52;3.47;;;2.50;;
23179;SDS011;11758;45.756;11.432;2022-11-20T11:08:03;8.20;;;4.22;;
23179;SDS011;11758;45.756;11.432;2022-11-20T11:10:36;2.72;;;2.53;;
23179;SDS011;11758;45.756;11.432;2022-11-20T11:13:06;19.58;;;11.20;;
23179;SDS011;11758;45.756;11.432;2022-11-20T11:15:37;8.55;;;5.57;;
23179;SDS011;11758;45.756;11.432;2022-11-20T11:18:04;4.95;;;4.45;;
23179;SDS011;11758;45.756;11.432;2022-11-20T11:20:30;7.03;;;5.95;;
23179;SDS011;11758;45.756;11.432;2022-11-20T11:22:58;13.20;;;3.78;;
23179;SDS011;11758;45.756;11.432;2022-11-20T11:27:51;5.75;;;4.68;;
23179;SDS011;11758;45.756;11.432;2022-11-20T11:30:18;7.05;;;3.63;;
23179;SDS011;11758;45.756;11.432;2022-11-20T11:32:45;5.50;;;3.20;;
23179;SDS011;11758;45.756;11.432;2022-11-20T11:35:32;5.35;;;2.85;;
23179;SDS011;11758;45.756;11.432;2022-11-20T11:38:05;2.92;;;2.70;;
23179;SDS011;11758;45.756;11.432;2022-11-20T11:40:33;3.80;;;3.28;;
23179;SDS011;11758;45.756;11.432;2022-11-20T11:43:01;2.65;;;2.53;;
23179;SDS011;11758;45.756;11.432;2022-11-20T11:45:28;3.65;;;3.00;;
23179;SDS011;11758;45.756;11.432;2022-11-20T11:47:55;4.38;;;2.80;;
23179;SDS011;11758;45.756;11.432;2022-11-20T11:50:31;3.20;;;2.90;;
23179;SDS011;11758;45.756;11.432;2022-11-20T11:55:38;3.25;;;2.95;;
23179;SDS011;11758;45.756;11.432;2022-11-20T12:00:35;3.97;;;3.00;;
23179;SDS011;11758;45.756;11.432;2022-11-20T12:03:13;3.05;;;2.85;;
23179;SDS011;11758;45.756;11.432;2022-11-20T12:05:44;4.10;;;2.70;;
23179;SDS011;11758;45.756;11.432;2022-11-20T12:13:50;4.00;;;3.60;;
23179;SDS011;11758;45.756;11.432;2022-11-20T12:16:19;3.88;;;3.53;;
23179;SDS011;11758;45.756;11.432;2022-11-20T12:18:47;4.50;;;4.10;;
23179;SDS011;11758;45.756;11.432;2022-11-20T12:21:18;5.63;;;3.92;;
23179;SDS011;11758;45.756;11.432;2022-11-20T12:23:58;5.85;;;4.30;;
23179;SDS011;11758;45.756;11.432;2022-11-20T12:28:56;4.30;;;3.90;;
23179;SDS011;11758;45.756;11.432;2022-11-20T12:31:41;4.10;;;3.50;;
23179;SDS011;11758;45.756;11.432;2022-11-20T12:36:53;5.80;;;3.72;;
23179;SDS011;11758;45.756;11.432;2022-11-20T12:39:26;4.00;;;3.67;;
23179;SDS011;11758;45.756;11.432;2022-11-20T12:52:41;4.10;;;3.50;;
23179;SDS011;11758;45.756;11.432;2022-11-20T12:55:13;5.45;;;3.15;;
23179;SDS011;11758;45.756;11.432;2022-11-20T12:58:16;4.72;;;3.55;;
23179;SDS011;11758;45.756;11.432;2022-11-20T13:00:34;4.78;;;3.55;;
23179;SDS011;11758;45.756;11.432;2022-11-20T13:08:27;3.45;;;3.03;;
23179;SDS011;11758;45.756;11.432;2022-11-20T13:16:19;5.57;;;3.50;;
23179;SDS011;11758;45.756;11.432;2022-11-20T13:18:47;4.28;;;3.65;;
23179;SDS011;11758;45.756;11.432;2022-11-20T13:21:18;4.13;;;3.40;;
23179;SDS011;11758;45.756;11.432;2022-11-20T13:23:45;3.65;;;3.35;;
23179;SDS011;11758;45.756;11.432;2022-11-20T13:28:43;4.30;;;3.90;;
23179;SDS011;11758;45.756;11.432;2022-11-20T13:34:14;4.68;;;3.72;;
23179;SDS011;11758;45.756;11.432;2022-11-20T13:36:52;4.38;;;3.92;;
23179;SDS011;11758;45.756;11.432;2022-11-20T13:42:01;3.95;;;3.65;;
23179;SDS011;11758;45.756;11.432;2022-11-20T13:44:38;7.38;;;3.88;;
23179;SDS011;11758;45.756;11.432;2022-11-20T13:47:24;7.80;;;3.70;;
23179;SDS011;11758;45.756;11.432;2022-11-20T13:49:51;5.90;;;4.30;;
23179;SDS011;11758;45.756;11.432;2022-11-20T14:00:09;3.50;;;3.20;;
23179;SDS011;11758;45.756;11.432;2022-11-20T14:02:36;3.92;;;3.08;;
23179;SDS011;11758;45.756;11.432;2022-11-20T14:05:02;2.92;;;2.83;;
23179;SDS011;11758;45.756;11.432;2022-11-20T14:07:35;5.38;;;3.55;;
23179;SDS011;11758;45.756;11.432;2022-11-20T14:10:02;3.15;;;2.80;;
23179;SDS011;11758;45.756;11.432;2022-11-20T14:12:29;4.10;;;3.25;;
23179;SDS011;11758;45.756;11.432;2022-11-20T14:14:56;9.32;;;3.15;;
23179;SDS011;11758;45.756;11.432;2022-11-20T14:19:54;3.40;;;3.10;;
23179;SDS011;11758;45.756;11.432;2022-11-20T14:22:22;6.15;;;3.58;;
23179;SDS011;11758;45.756;11.432;2022-11-20T14:24:59;3.75;;;3.45;;
23179;SDS011;11758;45.756;11.432;2022-11-20T14:27:26;3.88;;;3.58;;
23179;SDS011;11758;45.756;11.432;2022-11-20T14:29:52;3.78;;;3.47;;
23179;SDS011;11758;45.756;11.432;2022-11-20T14:32:19;4.13;;;3.85;;
23179;SDS011;11758;45.756;11.432;2022-11-20T14:34:47;5.38;;;3.60;;
23179;SDS011;11758;45.756;11.432;2022-11-20T14:37:21;3.97;;;3.58;;
23179;SDS011;11758;45.756;11.432;2022-11-20T14:39:53;4.80;;;3.83;;
23179;SDS011;11758;45.756;11.432;2022-11-20T14:42:23;3.80;;;3.50;;
23179;SDS011;11758;45.756;11.432;2022-11-20T14:44:50;3.67;;;3.38;;
23179;SDS011;11758;45.756;11.432;2022-11-20T14:47:18;5.30;;;3.60;;
23179;SDS011;11758;45.756;11.432;2022-11-20T14:49:45;7.82;;;4.07;;
23179;SDS011;11758;45.756;11.432;2022-11-20T14:55:13;4.35;;;3.47;;
23179;SDS011;11758;45.756;11.432;2022-11-20T14:57:31;5.00;;;3.55;;
23179;SDS011;11758;45.756;11.432;2022-11-20T15:00:31;4.45;;;3.72;;
23179;SDS011;11758;45.756;11.432;2022-11-20T15:02:50;5.55;;;3.90;;
23179;SDS011;11758;45.756;11.432;2022-11-20T15:05:43;4.55;;;4.22;;
23179;SDS011;11758;45.756;11.432;2022-11-20T15:08:07;6.00;;;4.78;;
23179;SDS011;11758;45.756;11.432;2022-11-20T15:10:33;5.63;;;5.13;;
23179;SDS011;11758;45.756;11.432;2022-11-20T15:13:05;6.22;;;4.90;;
23179;SDS011;11758;45.756;11.432;2022-11-20T15:15:45;6.07;;;5.15;;
23179;SDS011;11758;45.756;11.432;2022-11-20T15:18:13;5.30;;;4.22;;
23179;SDS011;11758;45.756;11.432;2022-11-20T15:20:40;6.22;;;4.53;;
23179;SDS011;11758;45.756;11.432;2022-11-20T15:23:13;5.00;;;4.60;;
23179;SDS011;11758;45.756;11.432;2022-11-20T15:25:40;5.75;;;4.80;;
23179;SDS011;11758;45.756;11.432;2022-11-20T15:28:48;4.30;;;3.75;;
23179;SDS011;11758;45.756;11.432;2022-11-20T15:30:55;3.88;;;3.58;;
23179;SDS011;11758;45.756;11.432;2022-11-20T15:33:22;4.50;;;3.55;;
23179;SDS011;11758;45.756;11.432;2022-11-20T15:35:48;3.55;;;3.28;;
23179;SDS011;11758;45.756;11.432;2022-11-20T15:38:14;3.97;;;3.70;;
23179;SDS011;11758;45.756;11.432;2022-11-20T15:40:40;6.90;;;4.22;;
23179;SDS011;11758;45.756;11.432;2022-11-20T15:43:06;6.75;;;4.25;;
23179;SDS011;11758;45.756;11.432;2022-11-20T15:45:46;6.95;;;4.38;;
23179;SDS011;11758;45.756;11.432;2022-11-20T15:53:27;4.35;;;3.95;;
23179;SDS011;11758;45.756;11.432;2022-11-20T15:55:53;5.88;;;4.90;;
23179;SDS011;11758;45.756;11.432;2022-11-20T15:58:19;21.02;;;7.32;;
23179;SDS011;11758;45.756;11.432;2022-11-20T16:00:47;13.07;;;6.82;;
23179;SDS011;11758;45.756;11.432;2022-11-20T16:03:14;5.18;;;4.65;;
23179;SDS011;11758;45.756;11.432;2022-11-20T16:05:41;7.88;;;4.47;;
23179;SDS011;11758;45.756;11.432;2022-11-20T16:08:07;5.53;;;4.78;;
23179;SDS011;11758;45.756;11.432;2022-11-20T16:10:33;10.65;;;5.93;;
23179;SDS011;11758;45.756;11.432;2022-11-20T16:13:00;10.57;;;7.32;;
23179;SDS011;11758;45.756;11.432;2022-11-20T16:15:52;13.02;;;7.25;;
23179;SDS011;11758;45.756;11.432;2022-11-20T16:18:21;21.35;;;10.73;;
23179;SDS011;11758;45.756;11.432;2022-11-20T16:20:51;20.70;;;10.38;;
23179;SDS011;11758;45.756;11.432;2022-11-20T16:23:18;14.63;;;8.43;;
23179;SDS011;11758;45.756;11.432;2022-11-20T16:25:47;12.48;;;7.72;;